Terminal Aerodrome Forecast
Issued by NWS

Home | Current Version | Previous Version | Text Only | Print | Product List | Glossary On
Versions: 1 2 3 4 5 6 7 8 9 10 11 12 13 14 15 16 17 18 19 20 21 22 23 24 25
000
FTUS42 TJSJ 300922 AAA
TAFJSJ
TAF AMD
TJSJ 300922Z 3009/3106 10007KT P6SM VCTS SCT022CB BKN040 OVC090
      TEMPO 3009/3011 VRB12G18KT 3SM -TSRA FEW015 BKN025CB OVC050
     FM301100 11004KT P6SM VCSH SCT022 BKN050 BKN090
     FM301430 07012KT P6SM -RA SCT025 SCT050 BKN100
     FM301700 08014KT P6SM VCTS FEW025CB BKN050
     FM302200 09006KT P6SM FEW025 SCT060 SCT100=

USA.gov is the U.S. government's official web portal to all federal, state and local government web resources and services.